createdAt,value
2022-10-31T00:02:25.207Z,99.04
2022-10-31T00:05:28.542Z,99.05
2022-10-31T00:08:31.927Z,99.41
2022-10-31T00:11:34.962Z,99.46
2022-10-31T00:14:37.647Z,99.65
2022-10-31T00:17:40.355Z,99.53
2022-10-31T00:20:42.975Z,99.44
2022-10-31T00:23:46.187Z,99.38
2022-10-31T00:26:48.701Z,99.47
2022-10-31T00:29:51.550Z,99.65
2022-10-31T00:32:54.425Z,99.57
2022-10-31T00:35:57.993Z,99.37
2022-10-31T00:39:08.663Z,99.39
2022-10-31T00:42:12.025Z,99.57
2022-10-31T00:45:16.827Z,99.58
2022-10-31T00:48:20.007Z,99.63
2022-10-31T00:51:26.513Z,99.86
2022-10-31T00:54:32.439Z,99.82
2022-10-31T00:57:35.315Z,99.83
2022-10-31T01:00:40.547Z,99.75
2022-10-31T01:03:43.647Z,99.75
2022-10-31T01:06:48.336Z,99.81
2022-10-31T01:09:52.496Z,99.88
2022-10-31T01:12:56.128Z,99.75
2022-10-31T01:16:00.910Z,99.80
2022-10-31T01:19:04.065Z,99.71
2022-10-31T01:22:06.964Z,99.52
2022-10-31T01:25:11.376Z,99.38
2022-10-31T01:28:14.061Z,99.27
2022-10-31T01:31:19.560Z,99.20
2022-10-31T01:34:22.541Z,99.15
2022-10-31T01:37:26.470Z,99.28
2022-10-31T01:40:31.062Z,99.15
2022-10-31T01:43:54.126Z,99.12
2022-10-31T01:47:06.409Z,98.97
2022-10-31T01:50:14.860Z,98.76
2022-10-31T01:53:20.713Z,98.84
2022-10-31T01:56:26.752Z,98.60
2022-10-31T01:59:33.523Z,98.75
2022-10-31T02:02:37.943Z,98.93
2022-10-31T02:05:43.868Z,98.98
2022-10-31T02:08:47.240Z,99.16
2022-10-31T02:11:57.809Z,99.29
2022-10-31T02:15:00.956Z,99.46
2022-10-31T02:18:06.155Z,99.54
2022-10-31T02:21:27.156Z,99.71
2022-10-31T02:24:38.859Z,99.67
2022-10-31T02:28:03.094Z,99.58
2022-10-31T02:31:17.863Z,99.60
2022-10-31T02:34:34.697Z,99.58
2022-10-31T02:38:03.659Z,99.64
2022-10-31T02:41:19.556Z,99.68
2022-10-31T02:44:37.318Z,99.77
2022-10-31T02:47:40.098Z,99.86
2022-10-31T02:50:49.027Z,99.84
2022-10-31T02:53:51.776Z,99.87
2022-10-31T02:57:16.217Z,99.84
2022-10-31T03:00:18.838Z,99.75
2022-10-31T03:03:38.728Z,99.71
2022-10-31T03:06:55.332Z,99.49
2022-10-31T03:10:48.806Z,99.41
2022-10-31T03:14:05.981Z,99.39
2022-10-31T03:17:19.815Z,99.26
2022-10-31T03:20:29.136Z,99.31
2022-10-31T03:23:33.819Z,99.17
2022-10-31T03:26:40.160Z,99.10
2022-10-31T03:29:46.047Z,99.24
2022-10-31T03:32:55.623Z,99.34
2022-10-31T03:36:03.617Z,99.34
2022-10-31T03:39:12.061Z,99.34
2022-10-31T03:42:19.804Z,99.29
2022-10-31T03:45:31.328Z,99.20
2022-10-31T03:48:34.842Z,99.07
2022-10-31T03:51:57.782Z,99.06
2022-10-31T03:55:08.505Z,99.05
2022-10-31T03:58:29.568Z,99.11
2022-10-31T04:01:39.650Z,99.17
2022-10-31T04:04:45.623Z,99.33
2022-10-31T04:07:53.400Z,99.40
2022-10-31T04:10:58.788Z,99.58
2022-10-31T04:14:05.938Z,99.51
2022-10-31T04:17:16.435Z,99.55
2022-10-31T04:20:19.524Z,99.77
2022-10-31T04:23:26.329Z,100.00
2022-10-31T04:26:30.593Z,100.00
2022-10-31T04:29:33.999Z,100.00
2022-10-31T04:32:36.642Z,100.00
2022-10-31T04:35:40.689Z,100.00
2022-10-31T04:38:43.256Z,100.00
2022-10-31T04:41:46.401Z,100.00
2022-10-31T04:44:49.825Z,99.90
2022-10-31T04:47:57.596Z,99.76
2022-10-31T04:51:02.685Z,99.68
2022-10-31T04:54:07.614Z,99.60
2022-10-31T04:57:14.543Z,99.51
2022-10-31T05:00:21.553Z,99.57
2022-10-31T05:03:27.552Z,99.61
2022-10-31T05:06:31.485Z,99.62
2022-10-31T05:09:34.591Z,99.55
2022-10-31T05:12:37.764Z,99.61
2022-10-31T05:15:43.715Z,99.57
2022-10-31T05:18:50.010Z,99.53
2022-10-31T05:21:55.169Z,99.48
2022-10-31T05:24:59.771Z,99.40
2022-10-31T05:28:02.980Z,99.37
2022-10-31T05:31:07.121Z,99.53
2022-10-31T05:34:11.265Z,99.63
2022-10-31T05:37:18.074Z,99.52
2022-10-31T05:40:23.855Z,99.65
2022-10-31T05:43:29.221Z,99.73
2022-10-31T05:46:31.947Z,99.96
2022-10-31T05:49:38.144Z,100.00
2022-10-31T05:52:45.290Z,100.00
2022-10-31T05:55:49.885Z,100.00
2022-10-31T05:58:53.218Z,100.00
2022-10-31T06:01:57.474Z,100.00
2022-10-31T06:05:03.656Z,100.00
2022-10-31T06:08:10.578Z,100.00
2022-10-31T06:11:14.618Z,100.00
2022-10-31T06:14:21.491Z,100.00
2022-10-31T06:17:28.485Z,100.00
2022-10-31T06:20:41.460Z,99.98
2022-10-31T06:23:47.203Z,99.82
2022-10-31T06:26:51.249Z,99.71
2022-10-31T06:30:02.663Z,99.54
2022-10-31T06:33:07.804Z,99.58
2022-10-31T06:36:13.385Z,99.59
2022-10-31T06:39:17.365Z,99.60
2022-10-31T06:42:22.441Z,99.73
2022-10-31T06:45:28.080Z,99.83
2022-10-31T06:48:39.872Z,99.92
2022-10-31T06:51:44.617Z,100.00
2022-10-31T06:54:49.737Z,100.00
2022-10-31T06:58:03.110Z,100.00
2022-10-31T07:01:08.715Z,100.00
2022-10-31T07:04:19.488Z,99.99
2022-10-31T07:07:25.917Z,99.91
2022-10-31T07:10:37.426Z,100.00
2022-10-31T07:13:44.254Z,100.00
2022-10-31T07:16:55.819Z,100.00
2022-10-31T07:20:04.483Z,100.00
2022-10-31T07:23:15.997Z,100.00
2022-10-31T07:26:28.972Z,99.83
2022-10-31T07:29:33.103Z,99.88
2022-10-31T07:32:43.963Z,99.84
2022-10-31T07:35:49.136Z,99.65
2022-10-31T07:38:53.684Z,99.60
2022-10-31T07:42:00.405Z,99.24
2022-10-31T07:45:12.806Z,99.07
2022-10-31T07:48:40.345Z,98.96
2022-10-31T07:52:12.849Z,98.84
2022-10-31T07:55:29.048Z,98.59
2022-10-31T07:58:36.449Z,98.26
2022-10-31T08:01:44.409Z,97.85
2022-10-31T08:05:01.354Z,97.86
2022-10-31T08:08:32.180Z,97.81
2022-10-31T08:11:44.065Z,98.02
2022-10-31T08:14:49.657Z,98.11
2022-10-31T08:17:55.156Z,97.67
2022-10-31T08:21:13.718Z,97.74
2022-10-31T08:24:32.401Z,97.27
2022-10-31T08:27:38.688Z,97.07
2022-10-31T08:30:43.454Z,97.03
2022-10-31T08:33:54.411Z,96.80
2022-10-31T08:37:03.916Z,96.44
2022-10-31T08:40:14.548Z,95.71
2022-10-31T08:43:30.390Z,96.44
2022-10-31T08:46:44.881Z,96.66
2022-10-31T08:49:48.606Z,96.86
2022-10-31T08:53:06.276Z,97.09
2022-10-31T08:56:13.529Z,97.02
2022-10-31T08:59:23.942Z,97.19
2022-10-31T09:02:29.172Z,96.79
2022-10-31T09:05:34.791Z,96.68
2022-10-31T09:08:42.640Z,96.81
2022-10-31T09:11:49.503Z,96.75
2022-10-31T09:15:01.846Z,96.66
2022-10-31T09:18:15.590Z,96.32
2022-10-31T09:21:19.481Z,96.27
2022-10-31T09:24:25.836Z,96.17
2022-10-31T09:27:29.924Z,96.11
2022-10-31T09:30:36.445Z,96.21
2022-10-31T09:33:46.578Z,96.32
2022-10-31T09:36:54.976Z,96.13
2022-10-31T09:40:01.576Z,96.41
2022-10-31T09:43:11.610Z,96.20
2022-10-31T09:46:58.264Z,96.32
2022-10-31T09:50:30.336Z,96.13
2022-10-31T09:53:50.396Z,95.97
2022-10-31T09:57:13.471Z,95.45
2022-10-31T10:00:24.431Z,95.44
2022-10-31T10:03:43.926Z,95.30
2022-10-31T10:06:56.440Z,95.68
2022-10-31T10:10:13.649Z,95.64
2022-10-31T10:13:20.878Z,95.75
2022-10-31T10:17:08.780Z,95.55
2022-10-31T10:20:27.149Z,95.25
2022-10-31T10:24:00.970Z,95.13
2022-10-31T10:27:23.225Z,95.28
2022-10-31T10:30:56.462Z,95.13
2022-10-31T10:34:28.052Z,95.18
2022-10-31T10:37:40.430Z,94.99
2022-10-31T10:40:54.483Z,95.33
2022-10-31T10:44:00.962Z,95.42
2022-10-31T10:47:41.348Z,95.55
2022-10-31T10:50:52.524Z,95.16
2022-10-31T10:54:18.423Z,94.96
2022-10-31T10:57:34.536Z,94.77
2022-10-31T11:00:43.345Z,94.83
2022-10-31T11:03:47.902Z,94.99
2022-10-31T11:07:06.498Z,95.07
2022-10-31T11:10:16.253Z,94.85
2022-10-31T11:13:28.516Z,94.90
2022-10-31T11:16:43.333Z,95.03
2022-10-31T11:20:07.543Z,95.17
2022-10-31T11:23:31.367Z,95.27
2022-10-31T11:26:36.672Z,95.26
2022-10-31T11:29:47.848Z,95.25
2022-10-31T11:33:03.249Z,95.08
2022-10-31T11:36:36.466Z,95.08
2022-10-31T11:39:43.469Z,94.95
2022-10-31T11:43:04.354Z,95.07
2022-10-31T11:46:26.496Z,95.28
2022-10-31T11:49:52.457Z,95.26
2022-10-31T11:52:58.457Z,95.17
2022-10-31T11:56:15.433Z,95.15
2022-10-31T11:59:29.480Z,95.14
2022-10-31T12:02:35.534Z,95.17
2022-10-31T12:05:46.446Z,95.07
2022-10-31T12:08:51.159Z,95.37
2022-10-31T12:12:17.412Z,95.59
2022-10-31T12:15:29.456Z,95.50
2022-10-31T12:18:54.742Z,95.58
2022-10-31T12:22:19.802Z,95.47
2022-10-31T12:25:39.835Z,95.50
2022-10-31T12:29:08.661Z,95.62
2022-10-31T12:32:40.350Z,95.53
2022-10-31T12:36:15.744Z,95.70
2022-10-31T12:39:33.536Z,96.02
2022-10-31T12:43:00.946Z,96.26
2022-10-31T12:46:12.576Z,95.95
2022-10-31T12:49:41.462Z,95.88
2022-10-31T12:53:13.505Z,95.86
2022-10-31T12:56:37.536Z,96.03
2022-10-31T12:59:48.418Z,96.01
2022-10-31T13:03:23.409Z,96.07
2022-10-31T13:06:44.841Z,96.09
2022-10-31T13:09:58.658Z,96.12
2022-10-31T13:13:13.894Z,95.90
2022-10-31T13:16:23.771Z,96.08
2022-10-31T13:19:39.768Z,96.22
2022-10-31T13:23:01.692Z,96.34
2022-10-31T13:26:50.374Z,96.43
2022-10-31T13:30:22.363Z,96.53
2022-10-31T13:33:44.430Z,96.36
2022-10-31T13:37:03.180Z,96.36
2022-10-31T13:40:38.610Z,96.27
2022-10-31T13:44:25.043Z,96.39
2022-10-31T13:47:31.528Z,96.45
2022-10-31T13:50:35.653Z,96.61
2022-10-31T13:53:50.420Z,96.50
2022-10-31T13:56:56.606Z,96.65
2022-10-31T14:00:05.423Z,96.66
2022-10-31T14:03:36.313Z,96.82
2022-10-31T14:06:55.378Z,96.82
2022-10-31T14:10:23.003Z,96.65
2022-10-31T14:13:38.428Z,96.77
2022-10-31T14:16:46.413Z,96.78
2022-10-31T14:20:11.652Z,96.95
2022-10-31T14:23:41.578Z,97.08
2022-10-31T14:26:59.426Z,97.13
2022-10-31T14:30:19.723Z,97.29
2022-10-31T14:33:34.328Z,97.44
2022-10-31T14:37:28.299Z,97.35
2022-10-31T14:40:58.537Z,97.53
2022-10-31T14:44:38.704Z,97.64
2022-10-31T14:48:06.769Z,97.80
2022-10-31T14:51:45.374Z,97.76
2022-10-31T14:55:00.525Z,97.66
2022-10-31T14:58:11.532Z,97.58
2022-10-31T15:01:30.030Z,97.61
2022-10-31T15:04:40.675Z,97.90
2022-10-31T15:07:58.511Z,98.05
2022-10-31T15:11:20.417Z,98.04
2022-10-31T15:14:35.397Z,98.15
2022-10-31T15:18:01.386Z,98.17
2022-10-31T15:21:12.591Z,98.09
2022-10-31T15:24:26.324Z,98.21
2022-10-31T15:27:34.530Z,98.25
2022-10-31T15:30:41.457Z,98.33
2022-10-31T15:33:53.501Z,98.38
2022-10-31T15:36:59.142Z,98.46
2022-10-31T15:40:16.756Z,98.28
2022-10-31T15:43:20.441Z,98.37
2022-10-31T15:46:26.499Z,98.39
2022-10-31T15:49:48.381Z,98.51
2022-10-31T15:53:01.902Z,98.65
2022-10-31T15:56:12.472Z,98.54
2022-10-31T15:59:25.545Z,98.52
2022-10-31T16:02:29.183Z,98.42
2022-10-31T16:05:48.587Z,98.40
2022-10-31T16:08:55.615Z,98.39
2022-10-31T16:12:05.770Z,98.28
2022-10-31T16:15:18.121Z,98.30
2022-10-31T16:18:22.420Z,98.51
2022-10-31T16:21:46.342Z,98.55
2022-10-31T16:25:25.494Z,98.55
2022-10-31T16:28:31.959Z,98.50
2022-10-31T16:31:43.811Z,98.66
2022-10-31T16:35:03.713Z,98.73
2022-10-31T16:38:18.471Z,98.86
2022-10-31T16:41:31.370Z,98.92
2022-10-31T16:44:49.441Z,99.00
2022-10-31T16:47:53.471Z,99.27
2022-10-31T16:51:03.813Z,99.25
2022-10-31T16:54:14.883Z,99.29
2022-10-31T16:57:28.679Z,99.20
2022-10-31T17:00:45.335Z,99.26
2022-10-31T17:03:48.762Z,99.19
2022-10-31T17:07:02.425Z,99.12
2022-10-31T17:10:07.725Z,99.24
2022-10-31T17:13:18.494Z,99.32
2022-10-31T17:16:22.981Z,99.45
2022-10-31T17:19:44.320Z,99.42
2022-10-31T17:22:56.549Z,99.61
2022-10-31T17:26:01.422Z,99.63
2022-10-31T17:29:08.540Z,99.75
2022-10-31T17:32:21.602Z,99.72
2022-10-31T17:35:33.393Z,99.96
2022-10-31T17:38:43.451Z,100.00
2022-10-31T17:41:52.043Z,99.96
2022-10-31T17:44:57.451Z,100.00
2022-10-31T17:48:13.582Z,100.00
2022-10-31T17:51:27.672Z,100.00
2022-10-31T17:54:36.392Z,100.00
2022-10-31T17:57:40.234Z,100.00
2022-10-31T18:00:50.468Z,100.00
2022-10-31T18:04:02.499Z,100.00
2022-10-31T18:07:20.837Z,100.00
2022-10-31T18:10:37.408Z,100.00
2022-10-31T18:13:46.382Z,100.00
2022-10-31T18:16:55.708Z,100.00
2022-10-31T18:20:10.548Z,100.00
2022-10-31T18:23:16.060Z,100.00
2022-10-31T18:26:35.327Z,100.00
2022-10-31T18:29:40.006Z,100.00
2022-10-31T18:32:45.625Z,100.00
2022-10-31T18:35:49.642Z,100.00
2022-10-31T18:39:09.318Z,100.00
2022-10-31T18:42:19.335Z,100.00
2022-10-31T18:45:33.925Z,100.00
2022-10-31T18:48:47.359Z,100.00
2022-10-31T18:51:57.586Z,100.00
2022-10-31T18:55:02.454Z,100.00
2022-10-31T18:58:12.316Z,100.00
2022-10-31T19:01:21.112Z,100.00
2022-10-31T19:04:33.693Z,100.00
2022-10-31T19:07:49.632Z,100.00
2022-10-31T19:10:55.415Z,100.00
2022-10-31T19:14:04.387Z,100.00
2022-10-31T19:17:23.350Z,100.00
2022-10-31T19:20:36.507Z,100.00
2022-10-31T19:23:43.410Z,99.98
2022-10-31T19:26:51.948Z,100.00
2022-10-31T19:30:08.543Z,100.00
2022-10-31T19:33:34.873Z,100.00
2022-10-31T19:36:40.617Z,100.00
2022-10-31T19:40:01.326Z,100.00
2022-10-31T19:43:10.883Z,100.00
2022-10-31T19:46:22.748Z,100.00
2022-10-31T19:49:38.742Z,100.00
2022-10-31T19:52:55.444Z,100.00
2022-10-31T19:56:14.926Z,100.00
2022-10-31T19:59:20.939Z,100.00
2022-10-31T20:02:31.052Z,100.00
2022-10-31T20:05:49.412Z,100.00
2022-10-31T20:08:55.735Z,100.00
2022-10-31T20:12:05.384Z,100.00
2022-10-31T20:15:25.427Z,100.00
2022-10-31T20:18:36.404Z,100.00
2022-10-31T20:21:44.739Z,100.00
2022-10-31T20:24:50.521Z,100.00
2022-10-31T20:28:04.339Z,100.00
2022-10-31T20:31:17.409Z,100.00
2022-10-31T20:34:20.611Z,100.00
2022-10-31T20:37:31.649Z,100.00
2022-10-31T20:40:38.174Z,100.00
2022-10-31T20:44:02.456Z,100.00
2022-10-31T20:47:06.881Z,100.00
2022-10-31T20:50:11.051Z,100.00
2022-10-31T20:53:26.080Z,100.00
2022-10-31T20:56:37.945Z,100.00
2022-10-31T20:59:49.324Z,100.00
2022-10-31T21:02:56.469Z,100.00
2022-10-31T21:06:03.434Z,100.00
2022-10-31T21:09:12.992Z,100.00
2022-10-31T21:12:16.585Z,100.00
2022-10-31T21:15:25.912Z,100.00
2022-10-31T21:18:45.433Z,100.00
2022-10-31T21:21:52.576Z,100.00
2022-10-31T21:24:56.006Z,100.00
2022-10-31T21:27:59.604Z,100.00
2022-10-31T21:31:07.895Z,100.00
2022-10-31T21:34:11.788Z,100.00
2022-10-31T21:37:23.283Z,100.00
2022-10-31T21:40:35.435Z,100.00
2022-10-31T21:43:48.861Z,100.00
2022-10-31T21:47:01.666Z,100.00
2022-10-31T21:50:04.423Z,100.00
2022-10-31T21:53:27.216Z,100.00
2022-10-31T21:56:37.284Z,100.00
2022-10-31T21:59:47.678Z,100.00
2022-10-31T22:02:51.485Z,100.00
2022-10-31T22:05:59.681Z,100.00
2022-10-31T22:09:18.885Z,100.00
2022-10-31T22:12:22.205Z,100.00
2022-10-31T22:15:32.945Z,100.00
2022-10-31T22:18:37.002Z,100.00
2022-10-31T22:21:44.427Z,100.00
2022-10-31T22:24:53.050Z,100.00
2022-10-31T22:27:58.871Z,100.00
2022-10-31T22:31:08.562Z,100.00
2022-10-31T22:34:12.918Z,100.00
2022-10-31T22:37:19.735Z,100.00
2022-10-31T22:40:24.512Z,100.00
2022-10-31T22:43:27.576Z,100.00
2022-10-31T22:46:34.293Z,100.00
2022-10-31T22:49:44.325Z,100.00
2022-10-31T22:52:48.544Z,100.00
2022-10-31T22:55:51.787Z,100.00
2022-10-31T22:58:55.031Z,100.00
2022-10-31T23:01:59.775Z,100.00
2022-10-31T23:05:09.316Z,100.00
2022-10-31T23:08:13.710Z,100.00
2022-10-31T23:11:22.128Z,100.00
2022-10-31T23:14:29.762Z,100.00
2022-10-31T23:17:32.833Z,100.00
2022-10-31T23:20:36.485Z,100.00
2022-10-31T23:23:39.655Z,100.00
2022-10-31T23:27:03.394Z,100.00
2022-10-31T23:30:16.674Z,100.00
2022-10-31T23:33:21.963Z,100.00
2022-10-31T23:36:25.300Z,100.00
2022-10-31T23:39:28.711Z,100.00
2022-10-31T23:42:31.588Z,100.00
2022-10-31T23:45:34.354Z,100.00
2022-10-31T23:48:53.557Z,100.00
2022-10-31T23:51:58.126Z,100.00
2022-10-31T23:55:02.830Z,100.00
2022-10-31T23:58:06.698Z,100.00
